KNGP/NGP METAR and TAF weather

Enter ICAO airport designator
Station Type Date Time Source
KNGP METAR 2019/08/25 19:56 UTC NOAA

KNGP 251956Z AUTO 15013KT 9SM TS BKN100 30/28 A2981 RMK AO2 RAB44E53 SLP094 P0000 T03000278 $


Station Type Date Time Source
KNGP Decoded METAR 2019/08/25 19:56 UTC NOAA

Station name not available
Aug 25, 2019 - 03:56 PM EDT / 2019.08.25 1956 UTC
Wind: from the SSE (150 degrees) at 15 MPH (13 KT):0
Visibility: 9 mile(s):0
Sky conditions: mostly cloudy
Weather: thunder
Precipitation last hour: A trace
Temperature: 86.0 F (30.0 C)
Heat index: 104.2 F (40.1 C):1
Dew Point: 82.0 F (27.8 C)
Relative Humidity: 88%
Pressure (altimeter): 29.81 in. Hg (1009 hPa)
ob: KNGP 251956Z AUTO 15013KT 9SM TS BKN100 30/28 A2981 RMK AO2 RAB44E53 SLP094 P0000 T03000278
cycle: 20

Station Type Date Time Source
KNGP TAF 2019/08/25 15:09 UTC NOAA

TAF TAF KNGP 2515/2615 VRB05KT 9999 SCT010 SCT020 BKN250 QNH2983INS
TEMPO 2515/2518 20010KT BKN010 OVC020
FM251800 17012G18KT 9999 VCTS FEW040CB SCT100 BKN250 QNH2979INS
TEMPO 2519/2600 VRB20G30KT 6000 TSRA BKN030CB OVC080
FM260100 17012G18KT 9999 FEW020 SCT050 QNH2975INS
TEMPO 2604/2610 17010KT
FM261200 19012G18KT 9999 SCT020 SCT150 BKN280 QNH2971INS
TEMPO 2612/2615 17020G30KT AUTOMATED SENSOR METWATCH 2515 TIL 2611 T34/2520Z T27/2511Z FN00213

Example: see airport list